createdAt,value
2022-12-03T00:02:14.042Z,87.63
2022-12-03T00:05:01.759Z,87.99
2022-12-03T00:07:49.835Z,88.07
2022-12-03T00:10:37.182Z,87.89
2022-12-03T00:13:24.749Z,87.65
2022-12-03T00:16:12.512Z,87.66
2022-12-03T00:19:00.398Z,87.89
2022-12-03T00:21:47.731Z,87.89
2022-12-03T00:24:35.585Z,87.92
2022-12-03T00:27:23.406Z,87.68
2022-12-03T00:30:12.047Z,87.54
2022-12-03T00:32:59.689Z,87.57
2022-12-03T00:35:48.849Z,87.24
2022-12-03T00:38:36.641Z,87.15
2022-12-03T00:41:24.127Z,86.72
2022-12-03T00:44:12.193Z,86.68
2022-12-03T00:46:59.943Z,86.48
2022-12-03T00:49:47.474Z,86.80
2022-12-03T00:52:35.345Z,86.93
2022-12-03T00:55:23.072Z,86.62
2022-12-03T00:58:10.867Z,86.41
2022-12-03T01:00:58.489Z,86.69
2022-12-03T01:03:46.030Z,86.65
2022-12-03T01:06:33.410Z,86.28
2022-12-03T01:09:21.069Z,86.50
2022-12-03T01:12:08.786Z,86.23
2022-12-03T01:14:56.330Z,86.34
2022-12-03T01:17:44.217Z,86.10
2022-12-03T01:20:32.168Z,86.36
2022-12-03T01:23:19.852Z,86.20
2022-12-03T01:26:07.474Z,86.35
2022-12-03T01:28:56.523Z,86.35
2022-12-03T01:32:03.177Z,86.26
2022-12-03T01:34:56.071Z,86.43
2022-12-03T01:37:43.866Z,86.75
2022-12-03T01:40:31.404Z,86.83
2022-12-03T01:43:18.917Z,86.96
2022-12-03T01:46:06.710Z,87.17
2022-12-03T01:48:56.273Z,87.49
2022-12-03T01:51:44.951Z,87.52
2022-12-03T01:54:39.956Z,87.57
2022-12-03T01:57:53.223Z,87.56
2022-12-03T02:00:41.509Z,87.73
2022-12-03T02:03:29.123Z,87.81
2022-12-03T02:06:19.674Z,88.26
2022-12-03T02:09:09.593Z,88.65
2022-12-03T02:11:57.367Z,88.98
2022-12-03T02:14:45.438Z,89.39
2022-12-03T02:17:33.668Z,89.69
2022-12-03T02:20:22.140Z,89.94
2022-12-03T02:23:24.008Z,90.10
2022-12-03T02:26:11.380Z,90.34
2022-12-03T02:29:00.015Z,90.43
2022-12-03T02:31:47.713Z,90.46
2022-12-03T02:34:46.077Z,90.47
2022-12-03T02:37:37.352Z,90.63
2022-12-03T02:40:29.041Z,90.54
2022-12-03T02:43:19.993Z,90.59
2022-12-03T02:46:08.260Z,90.45
2022-12-03T02:48:55.703Z,90.62
2022-12-03T02:51:43.416Z,90.66
2022-12-03T02:54:32.064Z,90.46
2022-12-03T02:57:20.250Z,90.21
2022-12-03T03:00:10.416Z,90.06
2022-12-03T03:02:58.392Z,89.90
2022-12-03T03:05:47.358Z,90.12
2022-12-03T03:08:38.035Z,89.95
2022-12-03T03:11:26.391Z,89.88
2022-12-03T03:14:14.054Z,89.78
2022-12-03T03:17:01.694Z,89.84
2022-12-03T03:19:49.624Z,89.64
2022-12-03T03:22:41.385Z,89.35
2022-12-03T03:25:29.258Z,89.83
2022-12-03T03:28:17.709Z,89.93
2022-12-03T03:31:08.196Z,89.68
2022-12-03T03:33:56.380Z,89.10
2022-12-03T03:36:45.048Z,88.93
2022-12-03T03:39:33.051Z,89.36
2022-12-03T03:42:24.192Z,89.61
2022-12-03T03:45:11.787Z,89.21
2022-12-03T03:48:00.625Z,89.67
2022-12-03T03:50:49.804Z,89.91
2022-12-03T03:53:45.835Z,89.94
2022-12-03T03:56:34.625Z,90.11
2022-12-03T03:59:22.394Z,90.14
2022-12-03T04:02:25.000Z,89.95
2022-12-03T04:05:24.031Z,90.04
2022-12-03T04:08:11.534Z,90.14
2022-12-03T04:11:17.799Z,90.08
2022-12-03T04:14:05.343Z,90.78
2022-12-03T04:16:53.317Z,91.40
2022-12-03T04:19:40.970Z,91.39
2022-12-03T04:22:40.806Z,91.56
2022-12-03T04:25:47.261Z,91.63
2022-12-03T04:28:50.356Z,91.46
2022-12-03T04:31:56.826Z,91.54
2022-12-03T04:35:03.056Z,91.46
2022-12-03T04:37:50.729Z,91.36
2022-12-03T04:40:57.636Z,91.17
2022-12-03T04:44:03.762Z,91.06
2022-12-03T04:46:51.409Z,91.13
2022-12-03T04:49:43.097Z,91.07
2022-12-03T04:52:30.735Z,91.49
2022-12-03T04:55:19.794Z,91.06
2022-12-03T04:58:07.477Z,91.16
2022-12-03T05:00:55.162Z,91.11
2022-12-03T05:03:43.213Z,90.81
2022-12-03T05:06:30.967Z,90.23
2022-12-03T05:09:18.805Z,90.17
2022-12-03T05:12:06.795Z,90.22
2022-12-03T05:14:54.460Z,90.12
2022-12-03T05:17:42.293Z,90.60
2022-12-03T05:20:41.715Z,90.68
2022-12-03T05:23:29.545Z,91.14
2022-12-03T05:26:17.283Z,91.16
2022-12-03T05:29:04.826Z,91.24
2022-12-03T05:31:52.348Z,91.35
2022-12-03T05:34:40.023Z,92.13
2022-12-03T05:37:27.945Z,92.56
2022-12-03T05:40:16.165Z,92.48
2022-12-03T05:43:04.344Z,92.57
2022-12-03T05:45:52.264Z,92.68
2022-12-03T05:48:39.806Z,92.73
2022-12-03T05:51:27.353Z,92.68
2022-12-03T05:54:15.233Z,92.85
2022-12-03T05:57:03.110Z,93.03
2022-12-03T05:59:50.804Z,92.99
2022-12-03T06:02:38.563Z,93.08
2022-12-03T06:05:26.332Z,93.73
2022-12-03T06:08:13.971Z,93.63
2022-12-03T06:11:01.525Z,94.43
2022-12-03T06:13:49.147Z,94.35
2022-12-03T06:16:37.009Z,94.83
2022-12-03T06:19:24.592Z,95.07
2022-12-03T06:22:12.311Z,95.20
2022-12-03T06:25:06.213Z,94.91
2022-12-03T06:27:54.731Z,94.94
2022-12-03T06:30:42.295Z,95.20
2022-12-03T06:33:29.676Z,95.48
2022-12-03T06:36:22.624Z,95.76
2022-12-03T06:39:10.714Z,95.68
2022-12-03T06:41:58.421Z,95.46
2022-12-03T06:44:46.043Z,95.44
2022-12-03T06:47:33.544Z,95.35
2022-12-03T06:50:21.473Z,94.76
2022-12-03T06:53:09.149Z,94.91
2022-12-03T06:55:56.833Z,94.39
2022-12-03T06:58:44.556Z,94.28
2022-12-03T07:01:32.216Z,93.97
2022-12-03T07:04:19.871Z,93.78
2022-12-03T07:07:07.472Z,93.38
2022-12-03T07:09:55.931Z,93.52
2022-12-03T07:12:43.528Z,93.23
2022-12-03T07:15:31.210Z,93.30
2022-12-03T07:18:18.744Z,92.81
2022-12-03T07:21:06.289Z,92.36
2022-12-03T07:23:54.060Z,91.59
2022-12-03T07:26:41.797Z,91.12
2022-12-03T07:29:29.441Z,90.96
2022-12-03T07:32:17.430Z,90.39
2022-12-03T07:35:07.575Z,90.13
2022-12-03T07:37:55.464Z,90.12
2022-12-03T07:40:43.249Z,90.19
2022-12-03T07:43:30.899Z,90.79
2022-12-03T07:46:18.192Z,90.53
2022-12-03T07:49:05.688Z,90.50
2022-12-03T07:51:57.242Z,90.38
2022-12-03T07:54:45.084Z,90.64
2022-12-03T07:57:32.661Z,90.27
2022-12-03T08:00:21.097Z,90.00
2022-12-03T08:03:08.710Z,90.05
2022-12-03T08:05:56.288Z,89.43
2022-12-03T08:08:43.874Z,89.44
2022-12-03T08:11:33.341Z,89.13
2022-12-03T08:14:21.151Z,88.94
2022-12-03T08:17:15.597Z,89.24
2022-12-03T08:20:13.713Z,89.04
2022-12-03T08:23:06.828Z,89.32
2022-12-03T08:25:54.315Z,89.10
2022-12-03T08:28:42.538Z,89.54
2022-12-03T08:31:33.680Z,90.89
2022-12-03T08:34:26.448Z,89.99
2022-12-03T08:37:19.323Z,88.73
2022-12-03T08:40:40.914Z,88.83
2022-12-03T08:43:33.983Z,88.56
2022-12-03T08:46:21.489Z,88.92
2022-12-03T08:49:09.771Z,88.53
2022-12-03T08:52:00.544Z,88.84
2022-12-03T08:54:56.187Z,88.55
2022-12-03T08:57:44.275Z,88.72
2022-12-03T09:00:32.592Z,88.06
2022-12-03T09:03:20.328Z,88.02
2022-12-03T09:06:08.839Z,87.83
2022-12-03T09:08:56.674Z,87.17
2022-12-03T09:11:44.507Z,87.47
2022-12-03T09:14:32.181Z,87.94
2022-12-03T09:17:20.099Z,88.10
2022-12-03T09:20:08.780Z,88.35
2022-12-03T09:22:56.185Z,88.53
2022-12-03T09:25:43.784Z,87.79
2022-12-03T09:28:31.343Z,87.77
2022-12-03T09:31:19.955Z,88.02
2022-12-03T09:34:09.744Z,88.35
2022-12-03T09:36:57.700Z,88.33
2022-12-03T09:39:45.604Z,88.18
2022-12-03T09:42:34.072Z,88.38
2022-12-03T09:45:21.523Z,88.72
2022-12-03T09:48:12.580Z,89.27
2022-12-03T09:51:01.457Z,89.10
2022-12-03T09:53:49.387Z,89.26
2022-12-03T09:56:38.188Z,88.87
2022-12-03T09:59:31.703Z,89.54
2022-12-03T10:02:29.700Z,88.95
2022-12-03T10:05:22.321Z,88.62
2022-12-03T10:08:20.802Z,88.38
2022-12-03T10:11:08.239Z,89.44
2022-12-03T10:13:58.105Z,88.92
2022-12-03T10:16:46.169Z,88.31
2022-12-03T10:19:37.603Z,87.96
2022-12-03T10:22:25.154Z,87.65
2022-12-03T10:25:17.355Z,87.62
2022-12-03T10:28:05.386Z,87.67
2022-12-03T10:30:57.112Z,87.79
2022-12-03T10:33:47.359Z,87.43
2022-12-03T10:36:34.839Z,87.27
2022-12-03T10:39:22.924Z,87.21
2022-12-03T10:42:16.625Z,87.08
2022-12-03T10:45:23.106Z,86.79
2022-12-03T10:48:14.186Z,86.32
2022-12-03T10:51:03.545Z,86.61
2022-12-03T10:53:51.496Z,86.62
2022-12-03T10:56:39.057Z,86.49
2022-12-03T10:59:32.972Z,86.81
2022-12-03T11:02:23.670Z,86.52
2022-12-03T11:05:21.964Z,86.98
2022-12-03T11:08:24.167Z,86.88
2022-12-03T11:11:25.052Z,86.54
2022-12-03T11:14:15.663Z,86.84
2022-12-03T11:17:08.053Z,87.29
2022-12-03T11:19:55.661Z,87.64
2022-12-03T11:22:49.088Z,88.09
2022-12-03T11:25:50.744Z,88.54
2022-12-03T11:28:55.096Z,88.94
2022-12-03T11:31:46.593Z,88.15
2022-12-03T11:34:34.786Z,88.30
2022-12-03T11:37:23.768Z,88.51
2022-12-03T11:40:17.439Z,88.80
2022-12-03T11:43:05.540Z,88.72
2022-12-03T11:45:52.957Z,88.99
2022-12-03T11:48:49.273Z,89.14
2022-12-03T11:51:36.957Z,89.15
2022-12-03T11:54:25.079Z,88.70
2022-12-03T11:57:31.897Z,89.47
2022-12-03T12:00:24.456Z,89.80
2022-12-03T12:03:26.033Z,89.21
2022-12-03T12:06:21.707Z,87.95
2022-12-03T12:09:11.721Z,87.29
2022-12-03T12:12:18.945Z,87.27
2022-12-03T12:15:43.674Z,88.11
2022-12-03T12:18:53.701Z,87.86
2022-12-03T12:21:48.958Z,88.14
2022-12-03T12:24:48.418Z,88.35
2022-12-03T12:27:45.638Z,88.71
2022-12-03T12:30:33.912Z,88.75
2022-12-03T12:33:24.645Z,88.98
2022-12-03T12:36:12.500Z,88.82
2022-12-03T12:39:07.976Z,88.67
2022-12-03T12:41:55.830Z,89.51
2022-12-03T12:44:44.356Z,89.28
2022-12-03T12:47:32.600Z,88.89
2022-12-03T12:50:23.383Z,88.59
2022-12-03T12:53:11.228Z,88.56
2022-12-03T12:56:11.287Z,88.62
2022-12-03T12:59:14.085Z,88.32
2022-12-03T13:02:04.509Z,88.73
2022-12-03T13:04:57.075Z,88.94
2022-12-03T13:07:46.115Z,88.56
2022-12-03T13:10:41.904Z,88.59
2022-12-03T13:13:44.196Z,88.84
2022-12-03T13:16:33.254Z,88.48
2022-12-03T13:19:29.192Z,87.95
2022-12-03T13:22:21.756Z,88.34
2022-12-03T13:28:45.035Z,89.09
2022-12-03T13:31:43.227Z,89.14
2022-12-03T13:34:33.695Z,88.81
2022-12-03T13:37:28.243Z,88.98
2022-12-03T13:40:33.009Z,89.46
2022-12-03T13:43:20.910Z,89.33
2022-12-03T13:46:09.999Z,89.68
2022-12-03T13:49:01.705Z,89.44
2022-12-03T13:51:50.512Z,89.19
2022-12-03T13:54:39.354Z,89.60
2022-12-03T13:57:27.944Z,90.22
2022-12-03T14:00:15.842Z,89.95
2022-12-03T14:03:03.467Z,89.63
2022-12-03T14:05:51.002Z,89.92
2022-12-03T14:08:38.643Z,90.27
2022-12-03T14:11:58.435Z,90.06
2022-12-03T14:14:46.274Z,90.03
2022-12-03T14:17:34.276Z,90.04
2022-12-03T14:20:21.692Z,90.04
2022-12-03T14:23:08.979Z,90.77
2022-12-03T14:25:56.506Z,90.91
2022-12-03T14:28:44.154Z,90.33
2022-12-03T14:31:31.831Z,90.28
2022-12-03T14:34:19.409Z,90.63
2022-12-03T14:37:07.125Z,90.69
2022-12-03T14:39:54.896Z,91.31
2022-12-03T14:42:42.628Z,91.30
2022-12-03T14:45:30.738Z,90.98
2022-12-03T14:48:18.546Z,90.77
2022-12-03T14:51:06.424Z,91.03
2022-12-03T14:53:53.917Z,90.87
2022-12-03T14:56:41.327Z,91.15
2022-12-03T14:59:28.769Z,91.80
2022-12-03T15:02:16.669Z,92.02
2022-12-03T15:05:04.925Z,91.45
2022-12-03T15:07:52.747Z,91.40
2022-12-03T15:10:40.575Z,91.21
2022-12-03T15:13:28.186Z,90.98
2022-12-03T15:16:15.597Z,90.54
2022-12-03T15:19:03.665Z,90.43
2022-12-03T15:21:51.080Z,90.67
2022-12-03T15:24:38.420Z,90.74
2022-12-03T15:27:26.450Z,90.87
2022-12-03T15:30:14.253Z,91.13
2022-12-03T15:33:03.250Z,91.03
2022-12-03T15:35:50.645Z,91.16
2022-12-03T15:38:38.373Z,91.46
2022-12-03T15:41:29.709Z,91.29
2022-12-03T15:44:17.127Z,91.29
2022-12-03T15:47:04.627Z,91.41
2022-12-03T15:49:52.244Z,91.26
2022-12-03T15:52:40.740Z,91.41
2022-12-03T15:55:29.034Z,91.49
2022-12-03T15:58:16.586Z,91.29
2022-12-03T16:01:04.984Z,91.14
2022-12-03T16:03:53.039Z,91.27
2022-12-03T16:06:40.985Z,91.69
2022-12-03T16:09:28.555Z,91.72
2022-12-03T16:12:16.336Z,91.48
2022-12-03T16:15:04.387Z,91.36
2022-12-03T16:17:51.997Z,91.59
2022-12-03T16:20:39.588Z,91.13
2022-12-03T16:23:27.139Z,90.99
2022-12-03T16:26:14.939Z,91.06
2022-12-03T16:29:02.775Z,91.26
2022-12-03T16:31:50.500Z,91.23
2022-12-03T16:34:37.954Z,91.41
2022-12-03T16:37:25.620Z,91.29
2022-12-03T16:40:13.257Z,91.61
2022-12-03T16:43:00.915Z,91.44
2022-12-03T16:46:02.784Z,91.35
2022-12-03T16:48:50.742Z,91.43
2022-12-03T16:51:38.260Z,91.49
2022-12-03T16:54:25.826Z,91.61
2022-12-03T16:57:13.966Z,91.14
2022-12-03T17:00:01.757Z,90.95
2022-12-03T17:02:49.625Z,90.76
2022-12-03T17:05:37.340Z,90.76
2022-12-03T17:08:25.183Z,90.87
2022-12-03T17:11:12.707Z,90.67
2022-12-03T17:14:00.340Z,90.93
2022-12-03T17:16:48.136Z,90.76
2022-12-03T17:19:35.956Z,91.28
2022-12-03T17:22:23.480Z,91.05
2022-12-03T17:25:13.545Z,91.24
2022-12-03T17:28:02.144Z,91.37
2022-12-03T17:30:49.901Z,91.33
2022-12-03T17:33:45.368Z,91.30
2022-12-03T17:36:33.759Z,91.36
2022-12-03T17:39:22.178Z,90.89
2022-12-03T17:42:10.078Z,91.20
2022-12-03T17:44:58.946Z,91.60
2022-12-03T17:47:51.077Z,91.61
2022-12-03T17:50:39.208Z,91.36
2022-12-03T17:53:27.945Z,91.39
2022-12-03T17:56:15.518Z,91.76
2022-12-03T17:59:03.688Z,91.95
2022-12-03T18:01:51.743Z,92.32
2022-12-03T18:04:39.365Z,92.39
2022-12-03T18:07:27.634Z,92.39
2022-12-03T18:10:15.496Z,92.52
2022-12-03T18:13:03.967Z,92.67
2022-12-03T18:15:53.213Z,92.64
2022-12-03T18:18:41.665Z,92.33
2022-12-03T18:21:30.493Z,92.79
2022-12-03T18:24:18.275Z,92.81
2022-12-03T18:27:06.722Z,92.83
2022-12-03T18:30:11.987Z,92.80
2022-12-03T18:33:00.283Z,92.52
2022-12-03T18:35:50.114Z,92.42
2022-12-03T18:38:39.834Z,92.53
2022-12-03T18:41:28.266Z,92.65
2022-12-03T18:44:18.576Z,92.83
2022-12-03T18:47:19.165Z,93.14
2022-12-03T18:50:35.172Z,93.07
2022-12-03T18:53:24.149Z,92.98
2022-12-03T18:56:13.423Z,92.89
2022-12-03T18:59:02.830Z,92.92
2022-12-03T19:01:50.664Z,92.28
2022-12-03T19:04:38.279Z,91.95
2022-12-03T19:07:26.292Z,92.16
2022-12-03T19:10:17.960Z,92.30
2022-12-03T19:13:06.048Z,92.33
2022-12-03T19:15:55.838Z,92.41
2022-12-03T19:18:44.764Z,92.65
2022-12-03T19:21:37.727Z,92.65
2022-12-03T19:24:27.502Z,92.64
2022-12-03T19:27:15.899Z,92.43
2022-12-03T19:30:05.335Z,92.62
2022-12-03T19:32:53.252Z,92.64
2022-12-03T19:35:41.111Z,92.82
2022-12-03T19:38:31.658Z,92.64
2022-12-03T19:41:23.903Z,92.59
2022-12-03T19:44:18.044Z,92.50
2022-12-03T19:47:14.197Z,92.52
2022-12-03T19:50:07.589Z,92.60
2022-12-03T19:52:58.572Z,92.60
2022-12-03T19:55:47.894Z,92.53
2022-12-03T19:58:38.754Z,92.54
2022-12-03T20:01:33.656Z,92.79
2022-12-03T20:04:21.625Z,92.45
2022-12-03T20:07:09.432Z,92.60
2022-12-03T20:09:57.764Z,92.27
2022-12-03T20:12:46.179Z,92.48
2022-12-03T20:15:37.552Z,92.61
2022-12-03T20:18:25.438Z,92.42
2022-12-03T20:21:16.146Z,92.28
2022-12-03T20:24:05.581Z,92.46
2022-12-03T20:26:53.228Z,92.51
2022-12-03T20:29:40.895Z,92.48
2022-12-03T20:32:28.686Z,92.72
2022-12-03T20:35:17.911Z,92.76
2022-12-03T20:38:06.980Z,92.65
2022-12-03T20:40:55.210Z,92.49
2022-12-03T20:43:46.627Z,92.63
2022-12-03T20:46:38.496Z,92.67
2022-12-03T20:49:30.394Z,92.19
2022-12-03T20:52:19.990Z,91.88
2022-12-03T20:55:08.736Z,92.24
2022-12-03T20:57:57.462Z,92.29
2022-12-03T21:00:45.427Z,92.81
2022-12-03T21:03:33.714Z,92.57
2022-12-03T21:06:23.452Z,92.55
2022-12-03T21:09:14.248Z,92.41
2022-12-03T21:12:02.329Z,92.51
2022-12-03T21:14:53.571Z,92.63
2022-12-03T21:17:41.510Z,92.27
2022-12-03T21:20:29.777Z,92.78
2022-12-03T21:23:17.752Z,92.47
2022-12-03T21:26:15.377Z,92.81
2022-12-03T21:29:02.988Z,92.70
2022-12-03T21:31:51.336Z,92.70
2022-12-03T21:34:39.236Z,92.92
2022-12-03T21:37:27.297Z,93.10
2022-12-03T21:40:15.717Z,92.77
2022-12-03T21:43:03.378Z,92.87
2022-12-03T21:45:52.076Z,92.97
2022-12-03T21:48:40.158Z,93.25
2022-12-03T21:51:27.988Z,93.00
2022-12-03T21:54:15.739Z,93.03
2022-12-03T21:57:20.264Z,93.11
2022-12-03T22:00:13.208Z,93.18
2022-12-03T22:03:24.723Z,93.13
2022-12-03T22:06:18.666Z,93.19
2022-12-03T22:09:07.686Z,92.94
2022-12-03T22:11:57.859Z,93.16
2022-12-03T22:14:46.248Z,93.07
2022-12-03T22:17:36.397Z,92.78
2022-12-03T22:20:27.025Z,93.15
2022-12-03T22:23:36.648Z,93.19
2022-12-03T22:26:30.491Z,93.19
2022-12-03T22:29:18.382Z,93.10
2022-12-03T22:32:06.771Z,93.44
2022-12-03T22:34:57.098Z,93.58
2022-12-03T22:37:44.926Z,94.06
2022-12-03T22:40:33.219Z,93.68
2022-12-03T22:47:11.451Z,93.81
2022-12-03T22:50:32.553Z,94.02
2022-12-03T22:53:23.209Z,93.69
2022-12-03T22:56:12.195Z,93.97
2022-12-03T22:59:00.956Z,93.77
2022-12-03T23:01:51.590Z,94.06
2022-12-03T23:04:39.455Z,94.09
2022-12-03T23:07:29.385Z,94.40
2022-12-03T23:10:28.394Z,94.47
2022-12-03T23:13:23.822Z,94.20
2022-12-03T23:16:28.897Z,93.98
2022-12-03T23:19:19.966Z,94.15
2022-12-03T23:22:12.409Z,94.30
2022-12-03T23:25:00.525Z,94.69
2022-12-03T23:27:50.485Z,94.73
2022-12-03T23:30:39.859Z,94.40
2022-12-03T23:33:32.948Z,94.63
2022-12-03T23:36:29.129Z,94.48
2022-12-03T23:39:20.234Z,94.36
2022-12-03T23:42:11.990Z,94.52
2022-12-03T23:44:59.746Z,94.38
2022-12-03T23:47:47.467Z,94.72
2022-12-03T23:50:38.260Z,94.31
2022-12-03T23:53:25.843Z,94.31
2022-12-03T23:56:22.099Z,94.41
2022-12-03T23:59:09.875Z,94.32
